createdAt,value
2023-05-18T00:00:21.321Z,7.61
2023-05-18T00:01:21.325Z,7.68
2023-05-18T00:02:21.448Z,7.75
2023-05-18T00:03:21.591Z,7.63
2023-05-18T00:04:21.464Z,7.67
2023-05-18T00:05:21.424Z,7.63
2023-05-18T00:06:21.452Z,7.58
2023-05-18T00:07:21.512Z,7.61
2023-05-18T00:08:21.498Z,7.63
2023-05-18T00:09:21.525Z,7.58
2023-05-18T00:10:21.602Z,7.58
2023-05-18T00:11:21.575Z,7.63
2023-05-18T00:12:21.617Z,7.55
2023-05-18T00:13:21.627Z,7.58
2023-05-18T00:14:21.664Z,7.54
2023-05-18T00:15:21.671Z,7.52
2023-05-18T00:16:21.750Z,7.47
2023-05-18T00:17:21.731Z,7.48
2023-05-18T00:18:21.746Z,7.44
2023-05-18T00:19:21.868Z,7.40
2023-05-18T00:20:21.800Z,7.29
2023-05-18T00:21:21.823Z,7.39
2023-05-18T00:22:21.847Z,7.31
2023-05-18T00:23:21.873Z,7.29
2023-05-18T00:24:21.903Z,7.30
2023-05-18T00:25:21.922Z,7.33
2023-05-18T00:26:21.948Z,7.31
2023-05-18T00:27:21.973Z,7.33
2023-05-18T00:28:22.017Z,7.33
2023-05-18T00:29:22.022Z,7.29
2023-05-18T00:30:22.058Z,7.19
2023-05-18T00:31:22.108Z,7.29
2023-05-18T00:32:22.104Z,7.16
2023-05-18T00:33:22.125Z,7.09
2023-05-18T00:34:22.161Z,7.16
2023-05-18T00:35:22.179Z,7.15
2023-05-18T00:36:22.200Z,7.01
2023-05-18T00:37:22.225Z,7.05
2023-05-18T00:38:22.248Z,7.01
2023-05-18T00:39:22.282Z,7.08
2023-05-18T00:40:22.299Z,7.05
2023-05-18T00:41:22.324Z,7.09
2023-05-18T00:42:22.346Z,7.13
2023-05-18T00:43:22.382Z,7.12
2023-05-18T00:44:22.424Z,7.08
2023-05-18T00:45:22.435Z,7.03
2023-05-18T00:46:22.461Z,7.01
2023-05-18T00:47:22.474Z,6.93
2023-05-18T00:48:22.527Z,6.91
2023-05-18T00:49:22.545Z,7.00
2023-05-18T00:50:22.549Z,6.97
2023-05-18T00:51:22.580Z,6.94
2023-05-18T00:52:22.612Z,6.97
2023-05-18T00:53:22.623Z,6.98
2023-05-18T00:54:22.645Z,7.01
2023-05-18T00:55:22.683Z,6.94
2023-05-18T00:56:22.699Z,6.95
2023-05-18T00:57:22.724Z,6.98
2023-05-18T00:58:22.748Z,6.83
2023-05-18T00:59:22.777Z,6.90
2023-05-18T01:00:22.837Z,6.93
2023-05-18T01:01:22.885Z,6.86
2023-05-18T01:02:22.871Z,6.80
2023-05-18T01:03:22.905Z,6.83
2023-05-18T01:04:22.898Z,6.86
2023-05-18T01:05:22.920Z,6.88
2023-05-18T01:06:22.944Z,6.82
2023-05-18T01:07:22.972Z,6.73
2023-05-18T01:08:22.992Z,6.88
2023-05-18T01:09:23.028Z,6.75
2023-05-18T01:10:23.057Z,6.80
2023-05-18T01:11:23.130Z,6.70
2023-05-18T01:12:23.095Z,6.85
2023-05-18T01:13:23.118Z,6.85
2023-05-18T01:14:23.140Z,6.76
2023-05-18T01:15:23.166Z,6.73
2023-05-18T01:16:23.270Z,6.78
2023-05-18T01:17:23.216Z,6.75
2023-05-18T01:18:23.238Z,6.75
2023-05-18T01:19:23.290Z,6.79
2023-05-18T01:20:23.290Z,6.78
2023-05-18T01:21:23.322Z,6.68
2023-05-18T01:22:23.346Z,6.61
2023-05-18T01:23:23.363Z,6.62
2023-05-18T01:24:23.444Z,6.57
2023-05-18T01:25:23.411Z,6.62
2023-05-18T01:26:23.444Z,6.57
2023-05-18T01:27:23.465Z,6.55
2023-05-18T01:28:23.484Z,6.62
2023-05-18T01:29:23.510Z,6.55
2023-05-18T01:30:23.536Z,6.57
2023-05-18T01:31:23.637Z,6.54
2023-05-18T01:32:23.652Z,6.54
2023-05-18T01:33:23.610Z,6.49
2023-05-18T01:34:23.632Z,6.44
2023-05-18T01:35:23.658Z,6.43
2023-05-18T01:36:23.679Z,6.44
2023-05-18T01:37:23.705Z,6.44
2023-05-18T01:38:23.739Z,6.46
2023-05-18T01:39:23.757Z,6.43
2023-05-18T01:40:23.778Z,6.43
2023-05-18T01:41:23.804Z,6.34
2023-05-18T01:42:23.829Z,6.36
2023-05-18T01:43:23.858Z,6.37
2023-05-18T01:44:23.888Z,6.44
2023-05-18T01:45:23.903Z,6.37
2023-05-18T01:46:24.002Z,6.36
2023-05-18T01:47:23.960Z,6.40
2023-05-18T01:48:23.997Z,6.31
2023-05-18T01:49:23.997Z,6.36
2023-05-18T01:50:24.024Z,6.34
2023-05-18T01:51:24.050Z,6.34
2023-05-18T01:52:24.075Z,6.31
2023-05-18T01:53:24.101Z,6.25
2023-05-18T01:54:24.122Z,6.26
2023-05-18T01:55:24.161Z,6.13
2023-05-18T01:56:24.171Z,6.24
2023-05-18T01:57:24.202Z,6.25
2023-05-18T01:58:24.219Z,6.24
2023-05-18T01:59:24.243Z,6.18
2023-05-18T02:00:24.280Z,6.28
2023-05-18T02:01:24.344Z,6.17
2023-05-18T02:02:24.427Z,6.20
2023-05-18T02:03:24.429Z,6.07
2023-05-18T02:04:24.459Z,6.21
2023-05-18T02:05:24.401Z,6.21
2023-05-18T02:06:24.418Z,6.20
2023-05-18T02:07:24.441Z,6.13
2023-05-18T02:08:24.465Z,6.13
2023-05-18T02:09:24.493Z,6.13
2023-05-18T02:10:24.511Z,6.10
2023-05-18T02:11:24.538Z,6.17
2023-05-18T02:12:24.562Z,6.09
2023-05-18T02:13:24.584Z,6.14
2023-05-18T02:14:24.607Z,6.02
2023-05-18T02:15:24.630Z,6.03
2023-05-18T02:16:24.707Z,5.99
2023-05-18T02:17:24.721Z,6.00
2023-05-18T02:18:24.706Z,5.92
2023-05-18T02:19:24.873Z,6.02
2023-05-18T02:20:24.880Z,5.88
2023-05-18T02:21:24.776Z,5.85
2023-05-18T02:22:24.801Z,5.98
2023-05-18T02:23:24.896Z,5.89
2023-05-18T02:24:24.854Z,5.89
2023-05-18T02:25:24.875Z,5.89
2023-05-18T02:26:24.894Z,5.89
2023-05-18T02:27:24.928Z,5.82
2023-05-18T02:28:24.943Z,5.95
2023-05-18T02:29:24.969Z,5.82
2023-05-18T02:30:24.998Z,5.85
2023-05-18T02:31:25.020Z,5.81
2023-05-18T02:32:25.088Z,5.78
2023-05-18T02:33:25.066Z,5.81
2023-05-18T02:34:25.089Z,5.80
2023-05-18T02:35:25.118Z,5.69
2023-05-18T02:36:25.212Z,5.80
2023-05-18T02:37:25.165Z,5.60
2023-05-18T02:38:25.184Z,5.63
2023-05-18T02:39:25.208Z,5.69
2023-05-18T02:40:25.233Z,5.69
2023-05-18T02:41:25.256Z,5.64
2023-05-18T02:42:25.282Z,5.75
2023-05-18T02:43:25.307Z,5.72
2023-05-18T02:44:25.330Z,5.62
2023-05-18T02:45:25.385Z,5.77
2023-05-18T02:46:25.459Z,5.75
2023-05-18T02:47:25.412Z,5.57
2023-05-18T02:48:25.428Z,5.59
2023-05-18T02:49:25.456Z,5.63
2023-05-18T02:50:25.478Z,5.60
2023-05-18T02:51:25.503Z,5.49
2023-05-18T02:52:25.543Z,5.57
2023-05-18T02:53:25.561Z,5.54
2023-05-18T02:54:25.575Z,5.41
2023-05-18T02:55:25.598Z,5.39
2023-05-18T02:56:25.626Z,5.42
2023-05-18T02:57:25.647Z,5.48
2023-05-18T02:58:25.765Z,5.46
2023-05-18T02:59:25.700Z,5.54
2023-05-18T03:00:25.785Z,5.51
2023-05-18T03:01:25.805Z,5.55
2023-05-18T03:02:25.789Z,5.46
2023-05-18T03:03:25.987Z,5.48
2023-05-18T03:04:26.166Z,5.41
2023-05-18T03:05:25.841Z,5.44
2023-05-18T03:06:26.084Z,5.44
2023-05-18T03:07:25.889Z,5.44
2023-05-18T03:08:26.000Z,5.41
2023-05-18T03:09:25.938Z,5.37
2023-05-18T03:10:25.963Z,5.37
2023-05-18T03:11:25.994Z,5.37
2023-05-18T03:12:26.013Z,5.44
2023-05-18T03:13:26.033Z,5.36
2023-05-18T03:14:26.061Z,5.31
2023-05-18T03:15:26.083Z,5.44
2023-05-18T03:16:26.116Z,5.39
2023-05-18T03:17:26.181Z,5.44
2023-05-18T03:18:26.156Z,5.41
2023-05-18T03:19:26.237Z,5.42
2023-05-18T03:20:26.204Z,5.39
2023-05-18T03:21:26.232Z,5.37
2023-05-18T03:22:26.266Z,5.37
2023-05-18T03:23:26.273Z,5.37
2023-05-18T03:24:26.329Z,5.44
2023-05-18T03:25:26.322Z,5.39
2023-05-18T03:26:26.346Z,5.39
2023-05-18T03:27:26.368Z,5.45
2023-05-18T03:28:26.397Z,5.37
2023-05-18T03:29:26.417Z,5.39
2023-05-18T03:30:26.446Z,5.31
2023-05-18T03:31:26.489Z,5.39
2023-05-18T03:32:26.511Z,5.37
2023-05-18T03:33:26.515Z,5.34
2023-05-18T03:34:26.540Z,5.31
2023-05-18T03:35:26.565Z,5.27
2023-05-18T03:37:09.137Z,5.24
2023-05-18T03:38:09.166Z,5.13
2023-05-18T03:39:09.184Z,5.15
2023-05-18T03:40:09.296Z,5.21
2023-05-18T03:41:09.234Z,5.16
2023-05-18T03:42:09.257Z,5.12
2023-05-18T03:43:09.281Z,5.10
2023-05-18T03:44:09.310Z,5.10
2023-05-18T03:45:09.326Z,5.13
2023-05-18T03:46:09.384Z,5.09
2023-05-18T03:47:09.371Z,5.10
2023-05-18T03:48:09.441Z,5.10
2023-05-18T03:49:09.426Z,5.10
2023-05-18T03:50:09.467Z,5.12
2023-05-18T03:51:09.479Z,4.98
2023-05-18T03:52:09.490Z,5.05
2023-05-18T03:53:09.523Z,5.10
2023-05-18T03:54:09.539Z,5.09
2023-05-18T03:55:09.565Z,5.03
2023-05-18T03:56:09.611Z,5.06
2023-05-18T03:57:09.621Z,5.02
2023-05-18T03:58:09.634Z,5.15
2023-05-18T03:59:09.863Z,4.94
2023-05-18T04:00:12.320Z,5.02
2023-05-18T04:01:09.698Z,5.09
2023-05-18T04:02:09.803Z,5.15
2023-05-18T04:03:09.823Z,5.06
2023-05-18T04:04:09.847Z,5.10
2023-05-18T04:05:09.795Z,5.16
2023-05-18T04:06:09.819Z,5.21
2023-05-18T04:07:09.857Z,5.15
2023-05-18T04:08:09.877Z,5.21
2023-05-18T04:09:09.888Z,5.23
2023-05-18T04:10:10.020Z,5.28
2023-05-18T04:11:09.933Z,5.26
2023-05-18T04:12:10.115Z,5.30
2023-05-18T04:13:10.025Z,5.27
2023-05-18T04:14:10.011Z,5.41
2023-05-18T04:15:10.034Z,5.36
2023-05-18T04:17:02.623Z,5.41
2023-05-18T04:18:02.676Z,5.45
2023-05-18T04:19:03.865Z,5.45
2023-05-18T04:20:02.710Z,5.51
2023-05-18T04:21:02.720Z,5.49
2023-05-18T04:22:02.743Z,5.54
2023-05-18T04:23:02.768Z,5.52
2023-05-18T04:24:02.854Z,5.54
2023-05-18T04:25:02.818Z,5.59
2023-05-18T04:26:02.849Z,5.66
2023-05-18T04:27:02.912Z,5.69
2023-05-18T04:28:02.910Z,5.59
2023-05-18T04:29:02.914Z,5.64
2023-05-18T04:30:02.946Z,5.72
2023-05-18T04:31:02.960Z,5.77
2023-05-18T04:32:03.015Z,5.84
2023-05-18T04:33:03.057Z,5.84
2023-05-18T04:34:03.035Z,5.88
2023-05-18T04:35:03.058Z,5.89
2023-05-18T04:36:03.084Z,5.95
2023-05-18T04:37:03.161Z,5.99
2023-05-18T04:38:03.129Z,6.03
2023-05-18T04:39:03.159Z,6.10
2023-05-18T04:40:03.183Z,6.06
2023-05-18T04:41:03.201Z,6.15
2023-05-18T04:42:03.228Z,6.21
2023-05-18T04:43:03.252Z,6.25
2023-05-18T04:44:03.301Z,6.29
2023-05-18T04:45:03.297Z,6.36
2023-05-18T04:46:03.362Z,6.39
2023-05-18T04:47:03.346Z,6.37
2023-05-18T04:48:03.428Z,6.44
2023-05-18T04:49:03.396Z,6.46
2023-05-18T04:50:03.422Z,6.46
2023-05-18T04:51:03.454Z,6.46
2023-05-18T04:52:03.487Z,6.51
2023-05-18T04:53:03.508Z,6.61
2023-05-18T04:54:46.063Z,6.79
2023-05-18T04:55:46.088Z,6.86
2023-05-18T04:56:48.731Z,6.93
2023-05-18T04:57:46.137Z,6.88
2023-05-18T04:58:46.179Z,7.01
2023-05-18T04:59:46.203Z,7.09
2023-05-18T05:00:46.207Z,7.03
2023-05-18T05:01:46.354Z,7.03
2023-05-18T05:02:46.367Z,7.19
2023-05-18T05:03:46.459Z,7.19
2023-05-18T05:04:46.304Z,7.19
2023-05-18T05:05:46.327Z,7.34
2023-05-18T05:06:46.352Z,7.29
2023-05-18T05:07:46.381Z,7.45
2023-05-18T05:08:46.401Z,7.44
2023-05-18T05:09:46.428Z,7.49
2023-05-18T05:10:49.082Z,7.48
2023-05-18T05:11:46.507Z,7.64
2023-05-18T05:12:49.184Z,7.64
2023-05-18T05:13:46.519Z,7.74
2023-05-18T05:14:46.543Z,7.74
2023-05-18T05:15:46.633Z,7.77
2023-05-18T05:17:34.200Z,7.80
2023-05-18T05:20:57.634Z,7.89
2023-05-18T05:21:54.423Z,7.96
2023-05-18T05:22:54.462Z,8.06
2023-05-18T05:23:54.468Z,8.19
2023-05-18T05:24:54.494Z,8.26
2023-05-18T05:25:54.516Z,8.52
2023-05-18T05:26:54.538Z,8.53
2023-05-18T05:27:54.568Z,8.58
2023-05-18T05:28:54.590Z,8.65
2023-05-18T05:29:54.628Z,8.68
2023-05-18T05:30:54.676Z,8.80
2023-05-18T05:31:54.704Z,8.72
2023-05-18T05:32:54.726Z,8.72
2023-05-18T05:33:55.951Z,8.71
2023-05-18T05:34:54.757Z,8.92
2023-05-18T05:35:55.086Z,9.08
2023-05-18T05:36:54.789Z,9.29
2023-05-18T05:37:54.836Z,9.48
2023-05-18T05:38:54.841Z,9.56
2023-05-18T05:39:54.870Z,9.72
2023-05-18T05:40:54.894Z,9.92
2023-05-18T05:43:07.536Z,10.41
2023-05-18T05:50:00.182Z,12.65
2023-05-18T05:52:00.161Z,13.91
2023-05-18T05:54:00.207Z,14.80
2023-05-18T05:55:42.764Z,15.43
2023-05-18T05:56:42.788Z,15.58
2023-05-18T05:57:42.903Z,15.70
2023-05-18T05:58:42.839Z,15.81
2023-05-18T06:02:13.842Z,16.08
2023-05-18T06:03:14.139Z,16.11
2023-05-18T06:04:13.866Z,16.30
2023-05-18T06:05:56.470Z,16.63
2023-05-18T06:08:39.012Z,17.12
2023-05-18T06:09:39.050Z,17.30
2023-05-18T06:11:39.120Z,17.74
2023-05-18T06:12:39.144Z,17.98
2023-05-18T06:13:39.180Z,17.99
2023-05-18T06:14:39.217Z,17.46
2023-05-18T06:15:39.458Z,17.66
2023-05-18T06:17:40.062Z,17.60
2023-05-18T06:18:40.739Z,17.63
2023-05-18T06:19:39.378Z,17.87
2023-05-18T06:20:39.399Z,18.02
2023-05-18T06:22:22.145Z,18.31
2023-05-18T06:24:04.572Z,18.27
2023-05-18T06:25:04.606Z,18.26
2023-05-18T06:30:48.427Z,18.49
2023-05-18T06:34:18.606Z,19.15
2023-05-18T06:35:19.991Z,19.43
2023-05-18T06:36:22.314Z,19.25
2023-05-18T06:37:19.033Z,19.30
2023-05-18T06:38:18.765Z,19.43
2023-05-18T06:39:19.002Z,19.32
2023-05-18T06:42:18.891Z,19.45
2023-05-18T06:43:19.734Z,19.46
2023-05-18T06:46:19.077Z,19.82
2023-05-18T06:47:19.075Z,19.64
2023-05-18T06:49:19.584Z,20.07
2023-05-18T06:50:19.603Z,19.67
2023-05-18T06:51:19.249Z,19.55
2023-05-18T06:52:19.255Z,19.63
2023-05-18T06:53:19.513Z,19.52
2023-05-18T06:58:19.514Z,20.79
2023-05-18T06:59:19.512Z,20.66
2023-05-18T07:00:19.556Z,20.44
2023-05-18T07:01:19.653Z,20.44
2023-05-18T07:02:19.624Z,20.79
2023-05-18T07:03:19.784Z,20.64
2023-05-18T07:04:20.703Z,21.04
2023-05-18T07:07:17.377Z,20.98
2023-05-18T07:08:17.646Z,21.12
2023-05-18T07:09:17.663Z,21.19
2023-05-18T07:10:17.475Z,21.04
2023-05-18T07:11:17.512Z,21.18
2023-05-18T07:12:17.567Z,21.11
2023-05-18T07:15:00.830Z,20.97
2023-05-18T07:16:00.263Z,21.27
2023-05-18T07:17:00.273Z,21.15
2023-05-18T07:19:08.128Z,21.49
2023-05-18T07:20:08.162Z,21.59
2023-05-18T07:21:08.174Z,21.09
2023-05-18T07:22:08.220Z,21.04
2023-05-18T07:23:08.260Z,21.09
2023-05-18T07:24:08.295Z,21.27
2023-05-18T07:25:08.343Z,21.18
2023-05-18T07:26:08.370Z,20.83
2023-05-18T07:27:08.407Z,20.29
2023-05-18T07:28:08.455Z,20.20
2023-05-18T07:29:08.483Z,20.02
2023-05-18T07:30:08.572Z,20.32
2023-05-18T07:31:08.620Z,20.66
2023-05-18T07:32:08.610Z,20.90
2023-05-18T07:33:08.697Z,21.15
2023-05-18T07:34:08.680Z,21.59
2023-05-18T07:35:08.937Z,21.85
2023-05-18T07:36:08.760Z,22.05
2023-05-18T07:37:08.791Z,21.97
2023-05-18T07:38:08.853Z,22.23
2023-05-18T07:39:08.873Z,21.92
2023-05-18T07:40:08.920Z,22.27
2023-05-18T07:41:08.946Z,22.15
2023-05-18T07:42:09.203Z,22.16
2023-05-18T07:44:09.282Z,22.16
2023-05-18T07:45:09.122Z,22.09
2023-05-18T08:01:10.073Z,22.42
2023-05-18T08:20:11.142Z,21.92
2023-05-18T08:21:10.742Z,22.36
2023-05-18T08:22:10.578Z,22.59
2023-05-18T08:24:11.476Z,22.76
2023-05-18T08:25:10.685Z,22.89
2023-05-18T08:26:13.163Z,21.97
2023-05-18T08:27:10.764Z,22.07
2023-05-18T08:28:10.786Z,22.29
2023-05-18T08:29:11.632Z,22.63
2023-05-18T08:30:10.876Z,22.42
2023-05-18T08:31:11.120Z,21.70
2023-05-18T08:32:10.999Z,22.00
2023-05-18T08:33:11.032Z,22.34
2023-05-18T08:35:11.071Z,22.31
2023-05-18T08:36:11.133Z,22.59
2023-05-18T08:37:11.349Z,22.61
2023-05-18T08:39:11.225Z,23.12
2023-05-18T08:40:11.983Z,22.82
2023-05-18T08:41:11.317Z,22.57
2023-05-18T09:15:05.914Z,20.67
2023-05-18T09:16:06.201Z,20.34
2023-05-18T09:17:06.183Z,20.04
2023-05-18T09:19:48.593Z,19.89
2023-05-18T09:21:36.200Z,20.32
2023-05-18T09:22:36.250Z,20.04
2023-05-18T09:23:36.278Z,19.57
2023-05-18T09:24:39.130Z,19.24
2023-05-18T09:25:36.550Z,18.42
2023-05-18T09:26:36.385Z,18.32
2023-05-18T09:28:36.440Z,18.50
2023-05-18T09:30:29.074Z,18.57
2023-05-18T09:31:29.117Z,18.89
2023-05-18T09:32:29.170Z,19.57
2023-05-18T09:33:29.204Z,19.40
2023-05-18T09:35:41.820Z,19.42
2023-05-18T09:36:41.853Z,19.37
2023-05-18T09:37:41.899Z,19.90
2023-05-18T09:38:41.916Z,19.75
2023-05-18T09:39:42.556Z,19.89
2023-05-18T09:40:42.001Z,19.89
2023-05-18T09:41:42.343Z,19.56
2023-05-18T09:42:42.052Z,19.61
2023-05-18T09:44:24.639Z,20.16
2023-05-18T09:45:24.690Z,20.63
2023-05-18T09:46:24.880Z,20.64
2023-05-18T09:47:24.779Z,20.26
2023-05-18T09:48:25.492Z,20.79
2023-05-18T09:49:24.831Z,21.19
2023-05-18T09:52:24.906Z,22.44
2023-05-18T09:53:24.939Z,22.66
2023-05-18T09:54:24.974Z,22.64
2023-05-18T09:55:25.754Z,22.97
2023-05-18T09:56:25.053Z,23.35
2023-05-18T09:57:25.276Z,23.06
2023-05-18T09:58:25.125Z,23.01
2023-05-18T09:59:25.345Z,23.21
2023-05-18T10:00:25.726Z,22.63
2023-05-18T10:01:25.319Z,22.60
2023-05-18T10:02:25.339Z,22.61
2023-05-18T10:03:25.277Z,22.31
2023-05-18T10:04:25.404Z,21.93
2023-05-18T10:05:25.547Z,22.33
2023-05-18T10:06:25.389Z,22.36
2023-05-18T10:07:25.426Z,22.39
2023-05-18T10:08:25.459Z,22.33
2023-05-18T10:09:25.700Z,22.60
2023-05-18T10:10:25.522Z,22.70
2023-05-18T10:11:25.561Z,23.14
2023-05-18T10:12:25.579Z,22.99
2023-05-18T10:13:25.614Z,23.24
2023-05-18T10:14:25.656Z,22.91
2023-05-18T10:15:25.693Z,21.92
2023-05-18T10:25:26.045Z,21.74
2023-05-18T10:26:26.056Z,21.61
2023-05-18T10:27:26.088Z,21.74
2023-05-18T10:28:26.181Z,21.89
2023-05-18T10:29:26.161Z,22.11
2023-05-18T10:30:26.200Z,22.22
2023-05-18T10:31:26.277Z,22.12
2023-05-18T10:32:26.527Z,21.77
2023-05-18T10:33:29.614Z,21.77
2023-05-18T10:34:26.831Z,21.51
2023-05-18T10:35:26.370Z,21.09
2023-05-18T10:36:26.402Z,20.91
2023-05-18T10:37:26.444Z,20.56
2023-05-18T10:38:26.687Z,21.00
2023-05-18T10:39:26.487Z,21.30
2023-05-18T10:40:26.532Z,21.56
2023-05-18T10:41:26.788Z,21.27
2023-05-18T10:42:27.317Z,21.27
2023-05-18T10:43:26.948Z,21.52
2023-05-18T10:44:26.664Z,21.78
2023-05-18T10:45:26.711Z,22.16
2023-05-18T10:46:27.118Z,22.22
2023-05-18T10:48:26.869Z,22.16
2023-05-18T10:49:26.836Z,22.24
2023-05-18T10:50:26.867Z,21.85
2023-05-18T10:52:27.342Z,22.39
2023-05-18T10:53:27.888Z,22.57
2023-05-18T10:54:26.984Z,21.96
2023-05-18T10:55:27.016Z,21.92
2023-05-18T10:56:27.058Z,21.97
2023-05-18T10:57:27.104Z,22.08
2023-05-18T10:59:27.161Z,22.12
2023-05-18T11:00:27.994Z,21.89
2023-05-18T11:01:27.293Z,22.26
2023-05-18T11:02:27.489Z,22.09
2023-05-18T11:03:27.313Z,22.60
2023-05-18T11:04:27.361Z,22.89
2023-05-18T11:05:27.363Z,22.63
2023-05-18T11:06:27.417Z,22.12
2023-05-18T11:07:27.411Z,21.86
2023-05-18T11:08:27.455Z,21.90
2023-05-18T11:09:27.476Z,22.14
2023-05-18T11:10:27.507Z,22.38
2023-05-18T11:11:27.544Z,22.59
2023-05-18T11:19:27.920Z,21.76
2023-05-18T11:20:27.865Z,21.59
2023-05-18T11:21:27.869Z,21.40
2023-05-18T11:22:29.889Z,21.34
2023-05-18T11:23:27.934Z,21.53
2023-05-18T11:25:28.002Z,21.74
2023-05-18T11:26:28.050Z,21.37
2023-05-18T11:27:28.062Z,20.49
2023-05-18T11:29:14.484Z,20.04
2023-05-18T11:31:10.728Z,20.25
2023-05-18T11:32:10.801Z,20.27
2023-05-18T11:33:10.929Z,20.16
2023-05-18T11:34:10.806Z,20.15
2023-05-18T11:35:10.885Z,20.01
2023-05-18T11:36:10.872Z,20.07
2023-05-18T11:37:10.910Z,19.75
2023-05-18T11:38:11.150Z,19.67
2023-05-18T11:40:11.654Z,19.67
2023-05-18T11:41:11.036Z,19.92
2023-05-18T11:42:11.085Z,20.11
2023-05-18T11:43:11.096Z,20.27
2023-05-18T11:44:11.130Z,20.16
2023-05-18T11:45:11.177Z,19.93
2023-05-18T11:46:12.319Z,19.92
2023-05-18T11:47:11.220Z,20.08
2023-05-18T11:49:11.323Z,20.18
2023-05-18T11:50:12.021Z,20.22
2023-05-18T11:51:11.573Z,20.23
2023-05-18T11:52:11.381Z,20.34
2023-05-18T12:08:46.999Z,19.06
2023-05-18T12:09:47.020Z,19.25
2023-05-18T12:10:47.041Z,19.37
2023-05-18T12:11:47.093Z,19.55
2023-05-18T12:13:32.342Z,19.63
2023-05-18T12:15:29.820Z,19.61
2023-05-18T12:16:32.473Z,19.79
2023-05-18T12:17:29.890Z,19.75
2023-05-18T12:18:30.096Z,19.37
2023-05-18T12:24:30.087Z,19.13
2023-05-18T14:18:26.448Z,20.26
2023-05-18T14:19:26.493Z,20.30
2023-05-18T14:20:26.538Z,20.40
2023-05-18T14:21:26.513Z,20.27
2023-05-18T14:22:26.541Z,20.29
2023-05-18T14:23:26.589Z,20.10
2023-05-18T14:24:27.228Z,20.02
2023-05-18T14:25:26.834Z,19.87
2023-05-18T14:26:26.853Z,19.68
2023-05-18T14:27:26.919Z,19.56
2023-05-18T14:28:26.947Z,19.50
2023-05-18T14:29:26.949Z,19.45
2023-05-18T14:30:26.785Z,19.30
2023-05-18T14:31:26.872Z,19.34
2023-05-18T14:32:26.884Z,19.20
2023-05-18T14:33:26.868Z,19.13
2023-05-18T14:34:26.918Z,19.07
2023-05-18T14:35:26.933Z,19.06
2023-05-18T14:36:26.958Z,19.12
2023-05-18T14:37:27.001Z,19.15
2023-05-18T14:38:27.074Z,19.12
2023-05-18T14:39:27.049Z,19.07
2023-05-18T14:40:27.081Z,19.24
2023-05-18T14:41:27.111Z,19.34
2023-05-18T14:42:27.152Z,19.46
2023-05-18T14:43:27.176Z,19.45
2023-05-18T14:44:27.209Z,19.55
2023-05-18T14:45:27.232Z,19.49
2023-05-18T14:46:27.291Z,19.61
2023-05-18T14:47:27.330Z,19.68
2023-05-18T14:48:27.327Z,19.72
2023-05-18T14:49:27.369Z,19.74
2023-05-18T14:51:27.436Z,19.63
2023-05-18T14:52:27.445Z,19.68
2023-05-18T14:53:27.470Z,19.75
2023-05-18T14:54:27.505Z,19.82
2023-05-18T14:55:27.537Z,20.04
2023-05-18T14:56:27.586Z,20.05
2023-05-18T14:57:27.616Z,20.01
2023-05-18T14:58:27.620Z,20.02
2023-05-18T14:59:27.653Z,20.15
2023-05-18T15:00:27.685Z,20.26
2023-05-18T15:01:27.735Z,20.30
2023-05-18T15:02:27.902Z,20.25
2023-05-18T15:04:15.437Z,20.35
2023-05-18T15:05:15.369Z,20.26
2023-05-18T15:06:15.406Z,20.30
2023-05-18T15:07:15.456Z,20.26
2023-05-18T15:08:15.457Z,20.18
2023-05-18T15:09:15.491Z,19.95
2023-05-18T15:10:15.533Z,19.80
2023-05-18T15:11:15.768Z,19.65
2023-05-18T15:12:15.581Z,19.64
2023-05-18T15:13:15.628Z,19.49
2023-05-18T15:14:15.641Z,19.37
2023-05-18T15:15:15.692Z,19.37
2023-05-18T15:16:15.723Z,19.34
2023-05-18T15:17:15.735Z,19.15
2023-05-18T15:18:16.039Z,19.15
2023-05-18T15:19:16.032Z,19.23
2023-05-18T15:20:15.828Z,19.17
2023-05-18T15:21:15.850Z,19.13
2023-05-18T15:22:15.887Z,18.97
2023-05-18T15:23:15.942Z,19.06
2023-05-18T15:24:15.945Z,19.12
2023-05-18T15:25:15.976Z,19.17
2023-05-18T15:26:16.005Z,19.30
2023-05-18T15:27:16.037Z,19.45
2023-05-18T15:28:16.068Z,19.60
2023-05-18T15:29:16.098Z,19.70
2023-05-18T15:30:16.125Z,19.70
2023-05-18T15:31:16.220Z,19.72
2023-05-18T15:32:16.400Z,19.74
2023-05-18T15:33:16.250Z,19.79
2023-05-18T15:34:16.241Z,19.93
2023-05-18T15:35:16.292Z,20.01
2023-05-18T15:36:16.306Z,20.01
2023-05-18T15:37:16.350Z,19.75
2023-05-18T15:38:16.392Z,19.74
2023-05-18T15:39:16.423Z,19.72
2023-05-18T15:40:16.441Z,19.78
2023-05-18T15:42:16.504Z,19.75
2023-05-18T15:44:16.767Z,19.92
2023-05-18T15:45:17.023Z,19.92
2023-05-18T15:46:18.039Z,19.92
2023-05-18T15:48:26.170Z,19.80
2023-05-18T15:49:24.479Z,19.74
2023-05-18T15:50:24.702Z,19.61
2023-05-18T15:51:24.538Z,19.49
2023-05-18T15:52:24.762Z,19.40
2023-05-18T15:53:24.607Z,19.37
2023-05-18T15:54:24.632Z,19.43
2023-05-18T15:55:24.647Z,19.37
2023-05-18T15:56:24.675Z,19.38
2023-05-18T15:58:24.734Z,19.37
2023-05-18T15:59:24.786Z,19.28
2023-05-18T16:00:24.792Z,19.38
2023-05-18T16:01:24.878Z,19.35
2023-05-18T16:02:26.014Z,19.40
2023-05-18T16:03:25.179Z,19.42
2023-05-18T16:04:24.935Z,19.43
2023-05-18T16:10:25.169Z,19.40
2023-05-18T16:11:25.125Z,19.35
2023-05-18T16:13:37.786Z,19.42
2023-05-18T16:14:37.804Z,19.38
2023-05-18T16:15:37.842Z,19.25
2023-05-18T16:16:37.894Z,19.30
2023-05-18T16:17:38.008Z,19.24
2023-05-18T16:18:38.075Z,19.24
2023-05-18T16:19:37.960Z,19.15
2023-05-18T16:21:38.338Z,19.25
2023-05-18T16:22:38.362Z,19.17
2023-05-18T16:23:38.090Z,19.19
2023-05-18T16:25:38.537Z,19.20
2023-05-18T16:26:40.015Z,19.13
2023-05-18T16:27:39.608Z,19.19
2023-05-18T16:28:38.234Z,19.13
2023-05-18T16:32:38.396Z,19.15
2023-05-18T16:33:38.408Z,19.16
2023-05-18T16:34:38.453Z,19.15
2023-05-18T16:35:38.446Z,19.05
2023-05-18T16:38:39.282Z,18.94
2023-05-18T16:39:38.566Z,18.84
2023-05-18T16:40:38.597Z,18.91
2023-05-18T16:41:38.653Z,18.91
2023-05-18T16:42:38.661Z,18.94
2023-05-18T16:43:38.694Z,18.96
2023-05-18T16:44:38.702Z,18.99
2023-05-18T16:45:38.736Z,19.00
2023-05-18T16:46:38.787Z,18.89
2023-05-18T16:47:38.808Z,18.90
2023-05-18T16:48:38.822Z,18.91
2023-05-18T16:50:38.878Z,18.79
2023-05-18T16:51:38.910Z,18.84
2023-05-18T16:52:38.934Z,18.75
2023-05-18T16:53:38.983Z,18.84
2023-05-18T16:54:39.005Z,18.78
2023-05-18T16:55:39.241Z,18.84
2023-05-18T16:56:39.078Z,18.71
2023-05-18T16:57:39.123Z,18.74
2023-05-18T16:58:39.112Z,18.68
2023-05-18T16:59:39.147Z,18.69
2023-05-18T17:00:39.175Z,18.63
2023-05-18T17:01:39.278Z,18.69
2023-05-18T17:02:39.511Z,18.57
2023-05-18T17:03:39.356Z,18.56
2023-05-18T17:04:39.291Z,18.65
2023-05-18T17:05:39.332Z,18.59
2023-05-18T17:06:39.351Z,18.54
2023-05-18T17:07:39.383Z,18.53
2023-05-18T17:08:40.031Z,18.61
2023-05-18T17:09:39.439Z,18.49
2023-05-18T17:10:39.471Z,18.54
2023-05-18T17:11:39.500Z,18.47
2023-05-18T17:12:39.524Z,18.49
2023-05-18T17:13:39.632Z,18.42
2023-05-18T17:14:42.425Z,18.34
2023-05-18T17:15:40.249Z,18.36
2023-05-18T17:17:22.207Z,18.35
2023-05-18T17:18:22.226Z,18.39
2023-05-18T17:19:24.905Z,18.38
2023-05-18T17:20:23.290Z,18.41
2023-05-18T17:21:22.307Z,18.42
2023-05-18T17:22:22.340Z,18.27
2023-05-18T17:23:25.724Z,18.38
2023-05-18T17:24:22.393Z,18.45
2023-05-18T17:25:22.425Z,18.26
2023-05-18T17:26:22.449Z,18.27
2023-05-18T17:27:22.500Z,18.20
2023-05-18T17:28:22.512Z,18.20
2023-05-18T17:29:22.562Z,18.20
2023-05-18T17:30:22.572Z,18.11
2023-05-18T17:31:22.746Z,18.06
2023-05-18T17:32:22.634Z,18.05
2023-05-18T17:33:22.660Z,18.01
2023-05-18T17:34:22.731Z,17.98
2023-05-18T17:35:22.721Z,17.98
2023-05-18T17:36:22.762Z,17.96
2023-05-18T17:37:22.790Z,17.90
2023-05-18T17:38:22.804Z,17.99
2023-05-18T17:39:22.842Z,17.94
2023-05-18T17:40:22.878Z,17.88
2023-05-18T17:41:22.893Z,17.84
2023-05-18T17:42:22.925Z,17.94
2023-05-18T17:43:22.961Z,17.87
2023-05-18T17:44:22.991Z,17.87
2023-05-18T17:45:23.037Z,17.86
2023-05-18T17:46:23.072Z,17.79
2023-05-18T17:47:23.263Z,17.81
2023-05-18T17:48:23.129Z,17.77
2023-05-18T17:49:23.127Z,17.83
2023-05-18T17:50:23.154Z,17.84
2023-05-18T17:51:23.187Z,17.74
2023-05-18T17:52:23.217Z,17.55
2023-05-18T17:53:23.245Z,17.65
2023-05-18T17:54:23.284Z,17.62
2023-05-18T17:55:23.318Z,17.57
2023-05-18T17:56:23.340Z,17.65
2023-05-18T17:57:23.377Z,17.58
2023-05-18T17:58:23.401Z,17.55
2023-05-18T17:59:23.425Z,17.54
2023-05-18T18:00:23.460Z,17.52
2023-05-18T18:01:23.618Z,17.47
2023-05-18T18:02:23.507Z,17.43
2023-05-18T18:03:23.583Z,17.45
2023-05-18T18:04:23.684Z,17.30
2023-05-18T18:05:23.604Z,17.38
2023-05-18T18:06:23.627Z,17.27